Nashua, NH (03060)

11:45 PM EDT on May 29, 2017 (GMT -0400)
Kinsley Street | | Change Station

Elev 180 ft 42.75 °N, 71.47 °W | Updated 12 seconds ago

Overcast
Overcast
48.7 °F
Feels Like 49 °F
N
0.0
Wind Variable Wind from North
Gusts 0.0 mph

Today
High -- | Low -- °F
--% Chance of Precip.
Yesterday
High -- | Low -- °F
Precip. -- in
Pressure 30.18 in
Visibility 10.0 miles
Clouds Overcast 600 ft
Windchill 49 °F
Dew Point 45 °F
Humidity 86%
Rainfall 0.04 in
Snow Depth Not available.
5:11 AM 8:15 PM
Waxing Crescent, 25% visible
METAR KASH 300256Z AUTO 11004KT 10SM OVC006 09/08 A3014 RMK AO2 SLP219 T00940083 50004
Pressure 30.18 in
Visibility 10.0 miles
Clouds Overcast 600 ft
Windchill 49 °F
Dew Point 45 °F
Humidity 86%
Rainfall 0.04 in
Snow Depth Not available.
5:11 AM 8:15 PM
Waxing Crescent, 25% visible
METAR KASH 300256Z AUTO 11004KT 10SM OVC006 09/08 A3014 RMK AO2 SLP219 T00940083 50004

Get Severe Weather Alerts

Thanks for signing up!

Be on the lookout for a verification email in your inbox.

You'll start receiving the daily forecast at 6 AM.

×

10-Day Weather Forecast

Almanac

Astronomy

May. 29, 2017 Rise Set
Actual Time
Civil Twilight
Nautical Twilight
Astronomical Twilight
Moon
Length of Visible Light
Length of Day
Tomorrow will be .
, % of the Moon is Illuminated

Today's Extremes

State Highs State Lows

Community

WunderPhotos

Category 6

Welcome to Category 6. This is the collective home for Weather Underground's featured writeups by Dr. Jeff Masters (right), Bob Henson (left), Chris Burt, and other regular contributors.

Nearby

Air Quality

  Air Quality AQ Index Pollutant
Not available.

Snow Depth

Station Depth Elevation

Earthquake Activity

City Distance Mag. Time & Date
Minimum magnitude displayed is 2.5.

Coastal Water Temperatures

Place Temperature

Stations

Nearby Weather Stations

Station Location Temp. Windchill Dew Point Humidity Wind Precip. Elev Updated Type
                   

Watches & Warnings

There are currently no watches in effect.